createdAt,value
2017-12-13T00:00:38.830Z,78.20
2017-12-13T00:02:16.025Z,78.50
2017-12-13T00:03:55.098Z,79.00
2017-12-13T00:05:32.738Z,79.60
2017-12-13T00:07:10.303Z,79.50
2017-12-13T00:08:46.966Z,79.50
2017-12-13T00:10:27.060Z,79.70
2017-12-13T00:12:04.356Z,80.00
2017-12-13T00:13:45.540Z,80.00
2017-12-13T00:15:30.288Z,80.80
2017-12-13T00:17:10.050Z,81.00
2017-12-13T00:18:54.643Z,80.20
2017-12-13T00:20:34.295Z,80.70
2017-12-13T00:22:14.124Z,80.50
2017-12-13T00:23:51.275Z,81.20
2017-12-13T00:25:28.192Z,81.40
2017-12-13T00:27:08.740Z,81.90
2017-12-13T00:28:45.632Z,81.80
2017-12-13T00:30:26.499Z,82.20
2017-12-13T00:32:11.941Z,82.20
2017-12-13T00:33:49.403Z,81.80
2017-12-13T00:35:26.339Z,82.30
2017-12-13T00:37:03.088Z,82.20
2017-12-13T00:38:39.744Z,82.60
2017-12-13T00:40:17.091Z,82.00
2017-12-13T00:41:54.303Z,82.00
2017-12-13T00:43:31.491Z,81.70
2017-12-13T00:45:07.932Z,81.70
2017-12-13T00:46:44.787Z,81.70
2017-12-13T00:48:22.973Z,81.40
2017-12-13T00:50:00.843Z,80.90
2017-12-13T00:51:37.441Z,80.90
2017-12-13T00:53:17.286Z,81.00
2017-12-13T00:54:55.236Z,80.30
2017-12-13T00:56:31.908Z,80.30
2017-12-13T00:58:09.169Z,80.50
2017-12-13T00:59:46.168Z,80.30
2017-12-13T01:01:25.021Z,80.70
2017-12-13T01:03:01.639Z,80.70
2017-12-13T01:04:38.336Z,80.90
2017-12-13T01:06:16.063Z,80.10
2017-12-13T01:07:53.427Z,79.70
2017-12-13T01:09:30.132Z,80.60
2017-12-13T01:11:06.924Z,80.30
2017-12-13T01:12:43.474Z,79.80
2017-12-13T01:14:24.354Z,79.70
2017-12-13T01:16:01.602Z,79.10
2017-12-13T01:17:38.833Z,79.50
2017-12-13T01:19:16.060Z,81.20
2017-12-13T01:20:53.287Z,81.10
2017-12-13T01:22:30.598Z,79.60
2017-12-13T01:24:08.268Z,79.50
2017-12-13T01:25:44.924Z,79.30
2017-12-13T01:27:21.795Z,79.50
2017-12-13T01:28:59.107Z,79.00
2017-12-13T01:30:35.496Z,79.30
2017-12-13T01:32:16.268Z,80.00
2017-12-13T01:33:53.184Z,79.80
2017-12-13T01:35:29.851Z,78.60
2017-12-13T01:37:07.156Z,78.70
2017-12-13T01:38:43.611Z,78.70
2017-12-13T01:40:24.363Z,78.90
2017-12-13T01:42:10.207Z,79.40
2017-12-13T01:43:47.546Z,80.50
2017-12-13T01:45:25.661Z,80.40
2017-12-13T01:47:02.858Z,81.50
2017-12-13T01:48:40.355Z,81.80
2017-12-13T01:50:17.699Z,82.10
2017-12-13T01:51:55.851Z,82.10
2017-12-13T01:53:32.506Z,82.10
2017-12-13T01:55:09.907Z,80.00
2017-12-13T01:56:46.466Z,79.20
2017-12-13T01:58:24.308Z,80.50
2017-12-13T02:00:04.359Z,79.80
2017-12-13T02:01:44.441Z,79.90
2017-12-13T02:03:21.875Z,80.40
2017-12-13T02:04:58.714Z,80.80
2017-12-13T02:06:39.295Z,81.20
2017-12-13T02:08:23.057Z,81.20
2017-12-13T02:10:04.258Z,81.60
2017-12-13T02:11:42.663Z,84.00
2017-12-13T02:13:20.018Z,83.90
2017-12-13T02:14:58.093Z,86.60
2017-12-13T02:16:34.985Z,85.70
2017-12-13T02:18:12.402Z,83.70
2017-12-13T02:19:48.920Z,81.30
2017-12-13T02:21:25.432Z,80.00
2017-12-13T02:23:04.196Z,81.60
2017-12-13T02:24:40.712Z,81.60
2017-12-13T02:26:17.985Z,84.30
2017-12-13T02:27:55.226Z,84.30
2017-12-13T02:29:32.832Z,85.90
2017-12-13T02:31:10.174Z,85.90
2017-12-13T02:32:47.442Z,88.40
2017-12-13T02:34:23.909Z,88.90
2017-12-13T02:36:00.869Z,89.10
2017-12-13T02:37:37.467Z,87.80
2017-12-13T02:39:17.591Z,88.20
2017-12-13T02:41:11.590Z,88.20
2017-12-13T02:42:48.350Z,89.90
2017-12-13T02:44:24.674Z,91.00
2017-12-13T02:46:01.039Z,90.50
2017-12-13T02:47:37.465Z,90.70
2017-12-13T02:49:15.660Z,89.80
2017-12-13T02:50:52.093Z,89.80
2017-12-13T02:52:28.928Z,87.10
2017-12-13T02:54:05.616Z,88.20
2017-12-13T02:55:42.650Z,86.50
2017-12-13T02:57:19.387Z,85.60
2017-12-13T02:58:56.056Z,84.50
2017-12-13T03:00:34.052Z,87.00
2017-12-13T03:02:10.480Z,87.40
2017-12-13T03:03:46.936Z,84.90
2017-12-13T03:05:23.398Z,83.60
2017-12-13T03:07:00.148Z,84.40
2017-12-13T03:08:36.664Z,86.60
2017-12-13T03:10:13.280Z,90.10
2017-12-13T03:11:49.999Z,91.20
2017-12-13T03:13:26.900Z,91.50
2017-12-13T03:15:03.446Z,90.60
2017-12-13T03:16:39.980Z,91.20
2017-12-13T03:18:17.119Z,91.80
2017-12-13T03:19:53.698Z,91.80
2017-12-13T03:21:30.145Z,92.10
2017-12-13T03:23:06.482Z,92.50
2017-12-13T03:24:43.557Z,92.60
2017-12-13T03:26:20.542Z,93.00
2017-12-13T03:27:56.854Z,93.20
2017-12-13T03:29:33.936Z,93.30
2017-12-13T03:31:10.789Z,93.20
2017-12-13T03:32:47.203Z,93.20
2017-12-13T03:34:23.553Z,93.10
2017-12-13T03:36:00.634Z,92.60
2017-12-13T03:37:37.280Z,92.60
2017-12-13T03:39:17.976Z,92.40
2017-12-13T03:40:54.366Z,91.90
2017-12-13T03:42:30.809Z,90.50
2017-12-13T03:44:11.003Z,90.00
2017-12-13T03:45:47.389Z,86.30
2017-12-13T03:47:23.868Z,84.80
2017-12-13T03:49:00.653Z,83.60
2017-12-13T03:50:37.169Z,86.70
2017-12-13T03:52:14.041Z,87.40
2017-12-13T03:53:50.365Z,86.20
2017-12-13T03:55:27.135Z,87.40
2017-12-13T03:57:03.444Z,88.60
2017-12-13T03:58:39.795Z,89.20
2017-12-13T04:00:25.243Z,89.30
2017-12-13T04:02:02.227Z,88.60
2017-12-13T04:03:38.665Z,90.10
2017-12-13T04:05:17.193Z,89.50
2017-12-13T04:06:53.462Z,89.50
2017-12-13T04:08:30.240Z,89.10
2017-12-13T04:10:14.034Z,89.70
2017-12-13T04:11:51.147Z,91.10
2017-12-13T04:13:27.462Z,91.10
2017-12-13T04:15:04.447Z,91.40
2017-12-13T04:16:40.877Z,90.50
2017-12-13T04:18:17.580Z,90.30
2017-12-13T04:19:53.880Z,90.30
2017-12-13T04:21:31.352Z,91.30
2017-12-13T04:23:07.749Z,91.70
2017-12-13T04:24:44.126Z,91.70
2017-12-13T04:26:20.535Z,91.90
2017-12-13T04:27:58.057Z,90.40
2017-12-13T04:29:34.369Z,90.40
2017-12-13T04:31:12.142Z,90.20
2017-12-13T04:32:48.377Z,88.30
2017-12-13T04:34:25.197Z,87.90
2017-12-13T04:36:02.307Z,86.10
2017-12-13T04:37:38.646Z,86.00
2017-12-13T04:39:14.955Z,86.20
2017-12-13T04:40:51.707Z,86.70
2017-12-13T04:42:28.994Z,83.20
2017-12-13T04:44:07.035Z,84.70
2017-12-13T04:45:44.513Z,84.70
2017-12-13T04:47:21.582Z,86.30
2017-12-13T04:48:57.849Z,88.90
2017-12-13T04:50:34.608Z,90.40
2017-12-13T04:52:10.849Z,91.00
2017-12-13T04:53:48.418Z,91.80
2017-12-13T04:55:25.390Z,91.80
2017-12-13T04:57:02.869Z,91.80
2017-12-13T04:58:39.259Z,91.70
2017-12-13T05:00:25.496Z,90.80
2017-12-13T05:02:02.631Z,90.80
2017-12-13T05:03:39.719Z,90.10
2017-12-13T05:05:17.759Z,85.90
2017-12-13T05:06:54.606Z,85.90
2017-12-13T05:08:31.744Z,83.10
2017-12-13T05:10:08.747Z,82.90
2017-12-13T05:11:45.192Z,85.10
2017-12-13T05:13:22.111Z,85.20
2017-12-13T05:14:58.497Z,85.30
2017-12-13T05:16:34.897Z,83.40
2017-12-13T05:18:11.536Z,83.20
2017-12-13T05:19:48.961Z,83.90
2017-12-13T05:21:25.890Z,83.70
2017-12-13T05:23:02.418Z,83.30
2017-12-13T05:24:39.194Z,83.70
2017-12-13T05:26:16.004Z,84.10
2017-12-13T05:27:52.366Z,84.60
2017-12-13T05:29:28.684Z,86.40
2017-12-13T05:31:05.378Z,87.00
2017-12-13T05:32:43.013Z,85.30
2017-12-13T05:34:19.387Z,85.30
2017-12-13T05:35:55.737Z,87.10
2017-12-13T05:37:42.725Z,86.80
2017-12-13T05:39:19.491Z,85.40
2017-12-13T05:40:55.767Z,84.70
2017-12-13T05:42:32.085Z,83.10
2017-12-13T05:44:08.427Z,81.70
2017-12-13T05:45:45.450Z,83.10
2017-12-13T05:47:22.459Z,88.30
2017-12-13T05:48:59.749Z,90.00
2017-12-13T05:50:36.084Z,90.00
2017-12-13T05:52:15.555Z,91.20
2017-12-13T05:53:52.168Z,91.20
2017-12-13T05:55:28.494Z,91.60
2017-12-13T05:57:04.907Z,91.30
2017-12-13T05:58:42.390Z,91.40
2017-12-13T06:00:20.079Z,91.30
2017-12-13T06:01:56.520Z,90.10
2017-12-13T06:03:32.856Z,89.20
2017-12-13T06:05:09.162Z,87.20
2017-12-13T06:06:45.495Z,85.60
2017-12-13T06:08:26.524Z,86.40
2017-12-13T06:10:04.035Z,86.70
2017-12-13T06:11:40.807Z,86.70
2017-12-13T06:13:17.323Z,86.50
2017-12-13T06:14:53.746Z,84.10
2017-12-13T06:16:30.102Z,83.40
2017-12-13T06:18:06.953Z,84.30
2017-12-13T06:19:44.854Z,84.40
2017-12-13T06:21:21.393Z,84.50
2017-12-13T06:22:57.705Z,85.60
2017-12-13T06:24:34.465Z,87.40
2017-12-13T06:26:11.453Z,88.10
2017-12-13T06:27:47.837Z,89.60
2017-12-13T06:29:24.418Z,91.00
2017-12-13T06:31:01.229Z,91.90
2017-12-13T06:32:38.390Z,93.10
2017-12-13T06:34:14.768Z,93.10
2017-12-13T06:35:51.132Z,92.90
2017-12-13T06:37:27.526Z,93.70
2017-12-13T06:39:06.614Z,93.50
2017-12-13T06:40:43.059Z,93.80
2017-12-13T06:42:20.279Z,93.20
2017-12-13T06:43:56.636Z,93.20
2017-12-13T06:47:21.787Z,93.30
2017-12-13T06:48:58.241Z,93.10
2017-12-13T06:50:34.748Z,93.60
2017-12-13T06:52:12.374Z,93.10
2017-12-13T06:53:48.850Z,93.00
2017-12-13T06:55:25.440Z,93.30
2017-12-13T06:57:02.202Z,93.50
2017-12-13T06:58:39.130Z,93.60
2017-12-13T07:00:19.764Z,93.10
2017-12-13T07:01:57.186Z,91.50
2017-12-13T07:03:34.704Z,90.50
2017-12-13T07:05:11.859Z,90.50
2017-12-13T07:06:48.485Z,88.40
2017-12-13T07:08:29.506Z,88.20
2017-12-13T07:10:06.634Z,89.30
2017-12-13T07:11:45.285Z,90.60
2017-12-13T07:13:22.518Z,88.20
2017-12-13T07:14:59.162Z,88.90
2017-12-13T07:16:35.879Z,86.40
2017-12-13T07:18:12.766Z,85.60
2017-12-13T07:19:49.312Z,85.20
2017-12-13T07:21:25.890Z,87.80
2017-12-13T07:23:02.459Z,87.80
2017-12-13T07:24:39.662Z,86.70
2017-12-13T07:26:16.279Z,85.90
2017-12-13T07:27:52.901Z,84.70
2017-12-13T07:29:30.286Z,84.40
2017-12-13T07:31:07.010Z,84.40
2017-12-13T07:32:43.596Z,84.70
2017-12-13T07:34:20.159Z,83.50
2017-12-13T07:35:56.787Z,82.80
2017-12-13T07:37:34.472Z,84.80
2017-12-13T07:39:12.070Z,84.80
2017-12-13T07:40:49.938Z,83.70
2017-12-13T07:42:26.379Z,83.60
2017-12-13T07:44:03.523Z,82.10
2017-12-13T07:45:40.077Z,81.10
2017-12-13T07:47:16.635Z,80.40
2017-12-13T07:48:53.160Z,79.90
2017-12-13T07:50:31.118Z,80.80
2017-12-13T07:52:07.723Z,80.80
2017-12-13T07:53:44.349Z,81.70
2017-12-13T07:55:20.907Z,82.20
2017-12-13T07:56:58.033Z,82.20
2017-12-13T07:58:35.422Z,82.30
2017-12-13T08:00:15.315Z,82.10
2017-12-13T08:01:52.127Z,81.40
2017-12-13T08:03:29.199Z,82.00
2017-12-13T08:05:05.749Z,81.60
2017-12-13T08:06:42.326Z,81.30
2017-12-13T08:08:18.975Z,81.70
2017-12-13T08:09:56.370Z,81.60
2017-12-13T08:11:33.101Z,81.30
2017-12-13T08:13:11.703Z,81.60
2017-12-13T08:14:48.361Z,81.50
2017-12-13T08:16:25.633Z,80.30
2017-12-13T08:18:02.927Z,79.60
2017-12-13T08:19:40.264Z,81.60
2017-12-13T08:21:17.699Z,81.60
2017-12-13T08:22:54.694Z,80.70
2017-12-13T08:24:31.188Z,80.70
2017-12-13T08:26:08.517Z,79.30
2017-12-13T08:27:44.948Z,79.30
2017-12-13T08:29:22.538Z,78.20
2017-12-13T08:30:59.785Z,78.60
2017-12-13T08:32:36.200Z,78.40
2017-12-13T08:34:12.847Z,79.70
2017-12-13T08:35:50.744Z,80.00
2017-12-13T08:37:27.490Z,81.00
2017-12-13T08:39:04.142Z,81.00
2017-12-13T08:40:40.767Z,80.40
2017-12-13T08:42:18.570Z,81.30
2017-12-13T08:43:55.880Z,82.00
2017-12-13T08:45:32.474Z,81.90
2017-12-13T08:47:09.982Z,83.30
2017-12-13T08:48:46.949Z,83.70
2017-12-13T08:50:23.643Z,84.20
2017-12-13T08:52:00.384Z,84.20
2017-12-13T08:53:37.235Z,84.80
2017-12-13T08:55:14.366Z,85.00
2017-12-13T08:56:51.101Z,85.60
2017-12-13T08:58:27.726Z,87.70
2017-12-13T09:00:09.193Z,89.60
2017-12-13T09:01:46.240Z,90.00
2017-12-13T09:03:23.819Z,90.60
2017-12-13T09:05:00.640Z,90.70
2017-12-13T09:06:37.164Z,91.60
2017-12-13T09:08:14.917Z,91.20
2017-12-13T09:09:51.436Z,91.20
2017-12-13T09:11:27.980Z,90.90
2017-12-13T09:13:04.471Z,91.90
2017-12-13T09:14:41.491Z,91.90
2017-12-13T09:16:18.766Z,92.70
2017-12-13T09:17:55.992Z,91.90
2017-12-13T09:19:32.560Z,91.90
2017-12-13T09:21:09.399Z,92.00
2017-12-13T09:22:45.969Z,91.60
2017-12-13T09:24:23.347Z,91.40
2017-12-13T09:26:00.641Z,92.00
2017-12-13T09:27:37.338Z,92.00
2017-12-13T09:29:13.913Z,92.30
2017-12-13T09:30:50.462Z,93.40
2017-12-13T09:32:27.099Z,94.40
2017-12-13T09:34:03.965Z,93.70
2017-12-13T09:35:41.196Z,93.60
2017-12-13T09:37:18.598Z,93.60
2017-12-13T09:38:55.085Z,93.70
2017-12-13T09:40:31.903Z,95.60
2017-12-13T09:42:08.459Z,96.30
2017-12-13T09:43:45.121Z,95.40
2017-12-13T09:45:21.819Z,95.50
2017-12-13T09:47:01.328Z,95.20
2017-12-13T09:48:38.742Z,95.30
2017-12-13T09:50:15.989Z,94.90
2017-12-13T09:51:52.598Z,94.80
2017-12-13T09:53:29.465Z,96.10
2017-12-13T09:55:06.087Z,96.40
2017-12-13T09:56:42.637Z,97.10
2017-12-13T09:58:20.049Z,99.40
2017-12-13T09:59:57.102Z,99.40
2017-12-13T10:01:34.576Z,99.90
2017-12-13T10:03:11.887Z,98.80
2017-12-13T10:04:49.258Z,99.30
2017-12-13T10:06:26.228Z,99.20
2017-12-13T10:08:02.895Z,98.70
2017-12-13T10:09:39.431Z,98.60
2017-12-13T10:11:15.916Z,98.40
2017-12-13T10:12:52.451Z,97.30
2017-12-13T10:14:28.996Z,98.30
2017-12-13T10:16:08.421Z,99.10
2017-12-13T10:17:45.626Z,99.90
2017-12-13T10:19:22.421Z,99.90
2017-12-13T10:20:58.901Z,99.90
2017-12-13T10:22:35.475Z,99.90
2017-12-13T10:24:14.784Z,99.90
2017-12-13T10:25:51.606Z,99.90
2017-12-13T10:27:28.101Z,99.90
2017-12-13T10:29:04.665Z,99.90
2017-12-13T10:30:41.174Z,99.90
2017-12-13T10:32:19.121Z,99.90
2017-12-13T10:33:55.624Z,99.90
2017-12-13T10:35:32.939Z,97.90
2017-12-13T10:37:10.111Z,97.80
2017-12-13T10:38:47.808Z,96.80
2017-12-13T10:40:25.504Z,96.80
2017-12-13T10:42:02.686Z,96.20
2017-12-13T10:43:39.188Z,96.20
2017-12-13T10:45:18.572Z,96.40
2017-12-13T10:46:55.131Z,96.60
2017-12-13T10:48:31.717Z,96.50
2017-12-13T10:50:08.223Z,97.80
2017-12-13T10:51:46.243Z,97.00
2017-12-13T10:53:23.804Z,97.90
2017-12-13T10:55:00.692Z,97.90
2017-12-13T10:56:37.198Z,98.80
2017-12-13T10:58:14.455Z,99.90
2017-12-13T10:59:51.336Z,99.90
2017-12-13T11:01:28.139Z,99.90
2017-12-13T11:03:04.828Z,99.00
2017-12-13T11:04:41.745Z,97.90
2017-12-13T11:06:19.386Z,97.00
2017-12-13T11:07:55.993Z,96.60
2017-12-13T11:09:32.746Z,98.20
2017-12-13T11:11:10.140Z,97.80
2017-12-13T11:12:46.752Z,96.80
2017-12-13T11:14:23.449Z,97.90
2017-12-13T11:16:00.130Z,97.70
2017-12-13T11:17:37.351Z,96.80
2017-12-13T11:19:13.980Z,97.00
2017-12-13T11:20:50.540Z,97.20
2017-12-13T11:22:27.198Z,96.90
2017-12-13T11:24:11.303Z,97.60
2017-12-13T11:25:47.970Z,97.00
2017-12-13T11:27:24.631Z,96.10
2017-12-13T11:29:01.243Z,95.90
2017-12-13T11:30:38.629Z,96.50
2017-12-13T11:32:15.934Z,96.70
2017-12-13T11:33:52.424Z,96.70
2017-12-13T11:35:29.310Z,96.10
2017-12-13T11:37:09.398Z,96.10
2017-12-13T11:38:46.712Z,95.80
2017-12-13T11:40:23.230Z,95.80
2017-12-13T11:42:02.554Z,95.70
2017-12-13T11:43:39.213Z,95.60
2017-12-13T11:45:17.315Z,95.50
2017-12-13T11:46:53.869Z,95.80
2017-12-13T11:48:30.513Z,95.60
2017-12-13T11:50:07.053Z,95.80
2017-12-13T11:51:44.355Z,95.40
2017-12-13T11:53:21.769Z,95.40
2017-12-13T11:55:00.366Z,95.50
2017-12-13T11:56:36.902Z,95.20
2017-12-13T11:58:13.419Z,95.70
2017-12-13T11:59:50.027Z,95.40
2017-12-13T12:01:27.683Z,95.20
2017-12-13T12:03:04.369Z,95.20
2017-12-13T12:04:41.117Z,95.10
2017-12-13T12:06:17.593Z,94.90
2017-12-13T12:07:54.409Z,94.80
2017-12-13T12:09:31.710Z,94.60
2017-12-13T12:11:08.386Z,94.50
2017-12-13T12:12:44.870Z,94.60
2017-12-13T12:14:22.565Z,94.70
2017-12-13T12:15:59.155Z,93.80
2017-12-13T12:17:35.632Z,93.60
2017-12-13T12:19:12.838Z,93.60
2017-12-13T12:20:50.420Z,93.70
2017-12-13T12:22:27.840Z,93.60
2017-12-13T12:24:04.455Z,93.60
2017-12-13T12:25:44.965Z,93.90
2017-12-13T12:27:21.846Z,93.60
2017-12-13T12:28:58.445Z,93.50
2017-12-13T12:30:35.015Z,93.20
2017-12-13T12:32:11.493Z,92.90
2017-12-13T12:33:47.969Z,92.70
2017-12-13T12:35:24.785Z,93.00
2017-12-13T12:37:01.360Z,93.20
2017-12-13T12:38:37.849Z,92.90
2017-12-13T12:40:14.735Z,91.60
2017-12-13T12:41:51.236Z,91.50
2017-12-13T12:43:27.658Z,91.40
2017-12-13T12:45:04.391Z,91.10
2017-12-13T12:46:45.339Z,91.70
2017-12-13T12:48:22.597Z,91.10
2017-12-13T12:50:00.590Z,91.10
2017-12-13T12:51:37.194Z,91.40
2017-12-13T12:53:21.426Z,91.30
2017-12-13T12:54:57.960Z,90.90
2017-12-13T12:56:34.509Z,90.90
2017-12-13T12:58:11.670Z,90.80
2017-12-13T12:59:48.597Z,90.30
2017-12-13T13:01:25.336Z,90.10
2017-12-13T13:03:01.868Z,90.40
2017-12-13T13:04:39.207Z,91.20
2017-12-13T13:06:16.145Z,91.30
2017-12-13T13:07:55.599Z,92.10
2017-12-13T13:09:33.090Z,92.00
2017-12-13T13:11:09.642Z,91.90
2017-12-13T13:12:47.236Z,92.10
2017-12-13T13:14:24.741Z,92.60
2017-12-13T13:16:02.568Z,93.70
2017-12-13T13:17:40.144Z,93.70
2017-12-13T13:19:17.311Z,93.70
2017-12-13T13:20:54.052Z,93.40
2017-12-13T13:22:30.716Z,93.80
2017-12-13T13:24:08.267Z,94.30
2017-12-13T13:25:44.956Z,94.30
2017-12-13T13:27:21.875Z,94.60
2017-12-13T13:28:59.409Z,95.40
2017-12-13T13:30:36.199Z,95.60
2017-12-13T13:32:15.330Z,95.60
2017-12-13T13:33:53.234Z,94.80
2017-12-13T13:35:29.900Z,94.30
2017-12-13T13:37:06.612Z,94.80
2017-12-13T13:38:43.147Z,94.20
2017-12-13T13:40:20.569Z,95.50
2017-12-13T13:41:57.258Z,95.40
2017-12-13T13:43:33.805Z,95.60
2017-12-13T13:45:10.492Z,95.50
2017-12-13T13:46:48.450Z,95.00
2017-12-13T13:48:26.815Z,95.30
2017-12-13T13:50:03.376Z,95.30
2017-12-13T13:51:41.241Z,96.00
2017-12-13T13:53:18.022Z,95.70
2017-12-13T13:54:54.924Z,95.80
2017-12-13T13:56:32.190Z,95.60
2017-12-13T13:58:08.861Z,95.80
2017-12-13T13:59:45.419Z,95.00
2017-12-13T14:01:22.174Z,95.10
2017-12-13T14:02:58.792Z,95.10
2017-12-13T14:04:35.423Z,95.30
2017-12-13T14:06:12.114Z,95.90
2017-12-13T14:07:48.762Z,95.40
2017-12-13T14:09:25.603Z,94.50
2017-12-13T14:11:02.362Z,94.50
2017-12-13T14:12:39.865Z,94.50
2017-12-13T14:14:17.560Z,93.30
2017-12-13T14:15:54.211Z,93.30
2017-12-13T14:17:35.888Z,93.60
2017-12-13T14:19:12.486Z,93.00
2017-12-13T14:20:49.985Z,94.40
2017-12-13T14:22:26.684Z,94.30
2017-12-13T14:25:47.118Z,93.90
2017-12-13T14:27:27.298Z,93.50
2017-12-13T14:29:04.685Z,93.50
2017-12-13T14:30:41.951Z,93.30
2017-12-13T14:32:18.661Z,93.30
2017-12-13T14:33:55.611Z,93.10
2017-12-13T14:35:32.233Z,93.00
2017-12-13T14:37:09.133Z,93.70
2017-12-13T14:38:45.843Z,93.50
2017-12-13T14:40:22.839Z,93.00
2017-12-13T14:41:59.589Z,92.70
2017-12-13T14:43:36.661Z,92.30
2017-12-13T14:45:20.468Z,91.90
2017-12-13T14:46:58.288Z,91.40
2017-12-13T14:48:34.879Z,91.40
2017-12-13T14:50:11.679Z,92.60
2017-12-13T14:51:48.277Z,92.30
2017-12-13T14:53:25.317Z,92.10
2017-12-13T14:55:02.778Z,91.50
2017-12-13T14:56:39.534Z,92.00
2017-12-13T14:58:20.282Z,91.20
2017-12-13T14:59:56.926Z,90.90
2017-12-13T15:01:34.043Z,91.20
2017-12-13T15:03:10.764Z,91.60
2017-12-13T15:04:47.316Z,91.80
2017-12-13T15:06:25.151Z,92.60
2017-12-13T15:08:02.580Z,91.70
2017-12-13T15:09:39.650Z,91.60
2017-12-13T15:11:19.982Z,92.00
2017-12-13T15:12:57.942Z,91.50
2017-12-13T15:14:35.809Z,91.50
2017-12-13T15:16:14.682Z,91.20
2017-12-13T15:17:51.231Z,91.00
2017-12-13T15:19:28.467Z,90.50
2017-12-13T15:21:05.286Z,90.30
2017-12-13T15:22:41.996Z,90.60
2017-12-13T15:24:18.935Z,90.90
2017-12-13T15:25:56.005Z,90.50
2017-12-13T15:27:32.628Z,90.40
2017-12-13T15:29:09.165Z,89.50
2017-12-13T15:30:46.702Z,89.90
2017-12-13T15:32:26.296Z,90.00
2017-12-13T15:34:02.880Z,90.20
2017-12-13T15:35:39.865Z,90.40
2017-12-13T15:37:17.320Z,90.80
2017-12-13T15:38:58.796Z,90.10
2017-12-13T15:40:41.938Z,90.10
2017-12-13T15:42:18.627Z,89.20
2017-12-13T15:43:55.351Z,89.40
2017-12-13T15:45:33.902Z,89.60
2017-12-13T15:47:10.559Z,89.50
2017-12-13T15:48:47.349Z,88.80
2017-12-13T15:50:23.952Z,88.20
2017-12-13T15:52:02.072Z,88.40
2017-12-13T15:53:38.594Z,88.20
2017-12-13T15:55:15.263Z,88.50
2017-12-13T15:56:51.722Z,88.60
2017-12-13T15:58:28.641Z,89.20
2017-12-13T16:00:05.357Z,89.10
2017-12-13T16:01:41.955Z,88.90
2017-12-13T16:03:18.792Z,88.80
2017-12-13T16:04:57.374Z,89.50
2017-12-13T16:06:34.831Z,89.50
2017-12-13T16:08:11.606Z,88.80
2017-12-13T16:09:49.574Z,88.90
2017-12-13T16:11:27.439Z,89.80
2017-12-13T16:13:04.426Z,90.20
2017-12-13T16:14:40.984Z,90.00
2017-12-13T16:16:17.672Z,90.00
2017-12-13T16:17:54.815Z,89.10
2017-12-13T16:19:31.445Z,90.40
2017-12-13T16:21:11.013Z,90.00
2017-12-13T16:22:48.714Z,90.00
2017-12-13T16:24:34.244Z,89.60
2017-12-13T16:26:14.113Z,89.40
2017-12-13T16:27:51.676Z,88.80
2017-12-13T16:29:28.276Z,88.90
2017-12-13T16:31:11.365Z,90.00
2017-12-13T16:32:47.966Z,90.00
2017-12-13T16:34:25.270Z,88.30
2017-12-13T16:36:03.194Z,88.10
2017-12-13T16:37:40.709Z,88.50
2017-12-13T16:39:21.649Z,87.60
2017-12-13T16:41:00.616Z,88.10
2017-12-13T16:42:37.632Z,88.00
2017-12-13T16:44:14.176Z,87.90
2017-12-13T16:45:51.484Z,87.50
2017-12-13T16:47:32.240Z,87.40
2017-12-13T16:49:09.135Z,88.50
2017-12-13T16:50:58.897Z,88.50
2017-12-13T16:52:35.597Z,88.30
2017-12-13T16:54:12.559Z,88.90
2017-12-13T16:55:50.202Z,89.90
2017-12-13T16:57:27.881Z,90.00
2017-12-13T16:59:04.513Z,89.70
2017-12-13T17:00:41.365Z,89.10
2017-12-13T17:02:18.040Z,89.00
2017-12-13T17:03:55.497Z,88.90
2017-12-13T17:05:33.078Z,88.90
2017-12-13T17:07:17.226Z,88.40
2017-12-13T17:08:54.004Z,88.60
2017-12-13T17:10:32.313Z,90.30
2017-12-13T17:12:08.851Z,90.30
2017-12-13T17:13:45.727Z,89.50
2017-12-13T17:15:22.196Z,89.50
2017-12-13T17:17:00.661Z,88.80
2017-12-13T17:18:37.275Z,89.40
2017-12-13T17:20:14.310Z,89.70
2017-12-13T17:21:52.263Z,91.00
2017-12-13T17:23:28.796Z,91.00
2017-12-13T17:25:08.896Z,91.00
2017-12-13T17:26:46.917Z,90.90
2017-12-13T17:28:23.739Z,91.70
2017-12-13T17:30:00.329Z,91.50
2017-12-13T17:31:36.953Z,91.10
2017-12-13T17:33:14.747Z,91.20
2017-12-13T17:34:52.023Z,91.50
2017-12-13T17:36:29.803Z,91.90
2017-12-13T17:38:06.314Z,91.90
2017-12-13T17:39:43.631Z,92.20
2017-12-13T17:41:21.132Z,92.70
2017-12-13T17:43:04.264Z,92.70
2017-12-13T17:44:41.760Z,92.50
2017-12-13T17:46:19.027Z,93.90
2017-12-13T17:47:56.565Z,94.20
2017-12-13T17:49:33.077Z,93.90
2017-12-13T17:51:10.433Z,94.10
2017-12-13T17:52:47.912Z,93.40
2017-12-13T17:54:24.755Z,92.60
2017-12-13T17:56:01.338Z,92.20
2017-12-13T17:57:37.926Z,91.80
2017-12-13T17:59:14.918Z,92.10
2017-12-13T18:00:51.927Z,91.50
2017-12-13T18:02:28.503Z,91.70
2017-12-13T18:04:05.113Z,91.60
2017-12-13T18:05:42.071Z,91.10
2017-12-13T18:07:30.536Z,90.90
2017-12-13T18:09:07.346Z,91.40
2017-12-13T18:10:43.898Z,91.70
2017-12-13T18:12:20.744Z,91.80
2017-12-13T18:13:57.393Z,92.20
2017-12-13T18:15:34.165Z,92.20
2017-12-13T18:17:11.534Z,93.00
2017-12-13T18:18:49.299Z,93.40
2017-12-13T18:20:25.957Z,93.40
2017-12-13T18:22:03.814Z,93.50
2017-12-13T18:23:40.578Z,92.80
2017-12-13T18:25:17.801Z,92.70
2017-12-13T18:26:54.393Z,92.00
2017-12-13T18:28:31.026Z,92.10
2017-12-13T18:30:07.970Z,93.00
2017-12-13T18:31:44.483Z,92.60
2017-12-13T18:33:21.797Z,93.00
2017-12-13T18:34:58.606Z,93.70
2017-12-13T18:36:35.634Z,92.90
2017-12-13T18:38:12.656Z,92.70
2017-12-13T18:39:50.133Z,93.20
2017-12-13T18:41:26.946Z,94.30
2017-12-13T18:43:03.567Z,93.70
2017-12-13T18:44:40.866Z,94.00
2017-12-13T18:46:17.693Z,94.00
2017-12-13T18:47:55.238Z,94.40
2017-12-13T18:49:31.856Z,94.40
2017-12-13T18:51:10.595Z,94.90
2017-12-13T18:52:47.428Z,94.90
2017-12-13T18:54:24.830Z,96.90
2017-12-13T18:56:02.554Z,96.70
2017-12-13T18:57:39.711Z,96.70
2017-12-13T18:59:16.500Z,96.20
2017-12-13T19:00:54.329Z,95.90
2017-12-13T19:02:31.710Z,96.60
2017-12-13T19:04:11.253Z,99.60
2017-12-13T19:05:50.377Z,99.40
2017-12-13T19:07:33.864Z,98.70
2017-12-13T19:09:13.501Z,98.60
2017-12-13T19:10:51.166Z,99.90
2017-12-13T19:12:28.235Z,99.90
2017-12-13T19:14:13.460Z,99.90
2017-12-13T19:15:50.900Z,99.70
2017-12-13T19:17:27.500Z,99.70
2017-12-13T19:19:04.163Z,99.80
2017-12-13T19:20:40.991Z,99.10
2017-12-13T19:22:17.857Z,99.90
2017-12-13T19:23:55.741Z,99.90
2017-12-13T19:25:33.007Z,99.90
2017-12-13T19:27:13.227Z,99.90
2017-12-13T19:28:52.059Z,99.80
2017-12-13T19:30:30.931Z,99.30
2017-12-13T19:32:07.772Z,98.00
2017-12-13T19:33:44.445Z,96.40
2017-12-13T19:35:21.941Z,95.70
2017-12-13T19:36:58.919Z,96.10
2017-12-13T19:38:37.387Z,95.40
2017-12-13T19:40:17.740Z,95.40
2017-12-13T19:41:55.595Z,94.30
2017-12-13T19:43:32.503Z,94.20
2017-12-13T19:45:09.108Z,94.10
2017-12-13T19:46:47.431Z,95.10
2017-12-13T19:48:24.781Z,95.10
2017-12-13T19:50:01.675Z,95.90
2017-12-13T19:51:39.559Z,96.20
2017-12-13T19:53:16.138Z,96.70
2017-12-13T19:54:53.403Z,96.60
2017-12-13T19:56:30.993Z,95.40
2017-12-13T19:58:07.636Z,95.40
2017-12-13T19:59:44.798Z,96.10
2017-12-13T20:01:21.769Z,95.60
2017-12-13T20:02:58.529Z,95.50
2017-12-13T20:04:35.166Z,95.90
2017-12-13T20:06:12.522Z,95.70
2017-12-13T20:07:49.581Z,95.60
2017-12-13T20:09:26.427Z,95.00
2017-12-13T20:11:03.232Z,94.60
2017-12-13T20:12:39.802Z,94.70
2017-12-13T20:14:16.891Z,95.10
2017-12-13T20:15:54.263Z,95.60
2017-12-13T20:17:33.470Z,94.90
2017-12-13T20:19:10.726Z,94.80
2017-12-13T20:20:48.422Z,95.70
2017-12-13T20:22:25.100Z,95.70
2017-12-13T20:24:02.584Z,96.30
2017-12-13T20:25:39.202Z,96.60
2017-12-13T20:27:18.259Z,96.70
2017-12-13T20:28:55.504Z,96.70
2017-12-13T20:30:34.377Z,97.60
2017-12-13T20:32:16.391Z,97.90
2017-12-13T20:34:01.312Z,97.80
2017-12-13T20:35:39.874Z,98.30
2017-12-13T20:37:26.830Z,98.20
2017-12-13T20:39:03.547Z,97.90
2017-12-13T20:40:40.993Z,96.60
2017-12-13T20:42:20.480Z,96.30
2017-12-13T20:43:59.153Z,96.70
2017-12-13T20:45:36.261Z,96.70
2017-12-13T20:47:13.068Z,97.30
2017-12-13T20:48:52.123Z,97.50
2017-12-13T20:50:35.210Z,99.40
2017-12-13T20:52:12.202Z,99.40
2017-12-13T20:53:50.759Z,97.90
2017-12-13T20:55:27.710Z,97.50
2017-12-13T20:57:05.504Z,96.60
2017-12-13T20:58:43.758Z,96.60